Nearby METAR Reports

 

KCMA - Camarillo, California, USA
Distance from station: WSW 4mi, 7km
Updated: Thu, 22-Oct-2020 4:55pm PDT
Overcast
Overcast
 Wind from WSW
Wind: WSW 7 mph , 11 km/h
Temperature: 72°F , 22°C
Dew Point: 57°F , 14°C
Humidity: 61%
Barometer: 29.87 inHg , 1011.5 hPa
Clouds: Overcast
Visibility: 10 miles , 16 km
Cloud details: Overcast 2500 ft
2020/10/22 23:55 KCMA 222355Z 25006KT 10SM OVC025 22/14 A2987 RMK AO2 SLP123 T02220144 10233 20217 53003
KNTD - Point Mugu Nas, California, USA
Distance from station: SSW 9mi, 15km
Updated: Thu, 22-Oct-2020 4:52pm PDT
Mostly cloudy
Mostly cloudy
 Wind from W
Wind: W 7 mph , 11 km/h
Temperature: 66°F , 19°C
Dew Point: 59°F , 15°C
Humidity: 78%
Barometer: 29.88 inHg , 1011.9 hPa
Clouds: Mostly cloudy
Visibility: 7 miles , 11 km
Cloud details: Few Clouds 1300 ft
Mostly cloudy 2800 ft
Mostly cloudy 3500 ft
2020/10/22 23:52 KNTD 222352Z 26006KT 7SM FEW013 BKN028 BKN035 19/15 A2988 RMK AO2 SLP119 T01940150 10217 20194 53002 $
 
KOXR - Oxnard, California, USA
Distance from station: WSW 10mi, 16km
Updated: Thu, 22-Oct-2020 4:51pm PDT
Mostly cloudy
Mostly cloudy
 Wind from WNW
Wind: WNW 10 mph , 17 km/h
Temperature: 66°F , 19°C
Dew Point: 61°F , 16°C
Humidity: 83%
Barometer: 29.87 inHg , 1011.5 hPa
Clouds: Mostly cloudy
Visibility: 9 miles , 14 km
Cloud details: Mostly cloudy 2500 ft
2020/10/22 23:51 KOXR 222351Z 29009KT 9SM BKN025 19/16 A2987 RMK AO2 SLP115 T01940161 10211 20194 53002
KVNY - Van Nuys, California, USA
Distance from station: E 31mi, 50km
Updated: Thu, 22-Oct-2020 4:58pm PDT
Clear
Clear
 Wind from S
Wind: S 7 mph , 11 km/h
Temperature: 72°F , 22°C
Dew Point: 55°F , 13°C
Humidity: 57%
Barometer: 29.87 inHg , 1011.5 hPa
Clouds: Clear
Visibility: 10 miles , 16 km
2020/10/22 23:58 KVNY 222358Z 18006KT 10SM CLR 22/13 A2987 RMK AO2 T02170128
 
KWHP - La / Whiteman, California, USA
Distance from station: E 35mi, 56km
Updated: Thu, 22-Oct-2020 4:54pm PDT
Clear
Clear
 Wind from calm
Wind: Calm
Temperature: 68°F , 20°C
Dew Point: 55°F , 13°C
Humidity: 64%
Barometer: 29.91 inHg , 1012.9 hPa
Clouds: Clear
Visibility: 10 miles , 16 km
2020/10/22 23:54 KWHP 222354Z 00000KT 10SM SKC 20/13 A2991
KSMO - Santa Monica, California, USA
Distance from station: ESE 36mi, 58km
Updated: Thu, 22-Oct-2020 4:51pm PDT
Clear
Clear
 Wind from SW
Wind: SW 7 mph , 11 km/h
Temperature: 70°F , 21°C
Dew Point: 57°F , 14°C
Humidity: 64%
Barometer: 29.88 inHg , 1011.9 hPa
Clouds: Clear
Visibility: 10 miles , 16 km
2020/10/22 23:51 KSMO 222351Z 23006KT 10SM CLR 21/14 A2988 RMK AO2 SLP116 T02060139 10211 20206 55000
 
KBUR - Burbank, California, USA
Distance from station: E 38mi, 61km
Updated: Thu, 22-Oct-2020 4:53pm PDT
Mostly cloudy
Mostly cloudy
 Wind from S
Wind: S 7 mph , 11 km/h
Temperature: 70°F , 21°C
Dew Point: 55°F , 13°C
Humidity: 60%
Barometer: 29.87 inHg , 1011.5 hPa
Clouds: Mostly cloudy
Visibility: 10 miles , 16 km
Cloud details: Mostly cloudy 3000 ft
2020/10/22 23:53 KBUR 222353Z 17006KT 10SM BKN030 21/13 A2987 RMK AO2 SLP104 T02110128 10211 20189 55000
KSDB - Sandberg, California, USA
Distance from station: NNE 40mi, 64km
Updated: Thu, 22-Oct-2020 4:53pm PDT
Clear
Clear
 Wind from SSW
Wind: SSW 9 mph , 15 km/h
Temperature: 66°F , 19°C
Dew Point: 50°F , 10°C
Humidity: 56%
Barometer: 29.98 inHg , 1015.2 hPa
Clouds: Clear
Visibility: 10 miles , 16 km
2020/10/22 23:53 KSDB 222353Z AUTO 21008KT 10SM CLR 19/10 A2998 RMK AO2 SLP106 T01890100 10244 20189 53002
 
KLAX - Los Angeles, California, USA
Distance from station: ESE 42mi, 68km
Updated: Thu, 22-Oct-2020 4:53pm PDT
Few Clouds
Few Clouds
 Wind from W
Wind: W 9 mph , 15 km/h
Temperature: 70°F , 21°C
Dew Point: 55°F , 13°C
Humidity: 60%
Barometer: 29.88 inHg , 1011.9 hPa
Clouds: Few Clouds
Visibility: 10 miles , 16 km
Cloud details: Few Clouds 3300 ft
2020/10/22 23:53 KLAX 222353Z 27008KT 10SM FEW033 21/13 A2988 RMK AO2 SLP116 T02060133 10211 20200 53002
KCQT - Los Angeles, California, USA
Distance from station: ESE 45mi, 73km
Updated: Thu, 22-Oct-2020 4:52pm PDT
Clear
Clear
 Wind from calm
Wind: Calm
Temperature: 72°F , 22°C
Dew Point: 55°F , 13°C
Humidity: 57%
Barometer: 29.87 inHg , 1011.5 hPa
Clouds: Clear
Visibility: 9 miles , 14 km
2020/10/22 23:52 KCQT 222352Z AUTO 00000KT 9SM CLR 22/13 A2987 RMK AO2 SLP111 T02220133 10222 20211 53001
 
KHHR - Hawthorne, California, USA
Distance from station: ESE 45mi, 73km
Updated: Thu, 22-Oct-2020 4:53pm PDT
Clear
Clear
 Wind from SW
Wind: SW 6 mph , 9 km/h
Temperature: 70°F , 21°C
Dew Point: 55°F , 13°C
Humidity: 60%
Barometer: 29.88 inHg , 1011.9 hPa
Clouds: Clear
Visibility: 10 miles , 16 km
2020/10/22 23:53 KHHR 222353Z AUTO 23005KT 10SM CLR 21/13 A2988 RMK AO2 SLP117 T02060133 10217 20206 53001
KSBA - Santa Barbara, California, USA
Distance from station: WNW 49mi, 79km
Updated: Thu, 22-Oct-2020 4:53pm PDT
Overcast
Overcast
 Wind from WSW
Wind: WSW 6 mph , 9 km/h
Temperature: 68°F , 20°C
Dew Point: 57°F , 14°C
Humidity: 69%
Barometer: 29.87 inHg , 1011.5 hPa
Clouds: Overcast
Visibility: 10 miles , 16 km
Cloud details: Overcast 3300 ft
2020/10/22 23:53 KSBA 222353Z 24005KT 10SM OVC033 20/14 A2987 RMK AO2 SLP114 T02000139 10217 20194 53002 $